Time;durP1;ratioP1;P1;durP2;ratioP2;P2;SDS_P1;SDS_P2;PMS_P1;PMS_P2;Temp;Humidity;BMP_temperature;BMP_pressure;BME280_temperature;BME280_humidity;BME280_pressure;Samples;Min_cycle;Max_cycle;Signal;HPM_P1;HPM_P2
2022/05/01 00:00:28;;;;;;;2.20;1.60;;;8.90;99.90;;;;;;5139810;22;20487;-52
2022/05/01 00:02:55;;;;;;;1.90;1.53;;;9.00;99.90;;;;;;5092134;28;20475;-53
2022/05/01 00:05:23;;;;;;;1.73;1.33;;;9.00;99.90;;;;;;5093424;28;20431;-53
2022/05/01 00:07:50;;;;;;;2.37;1.73;;;9.10;99.90;;;;;;5093716;28;20948;-53
2022/05/01 00:10:17;;;;;;;2.00;1.90;;;9.10;99.90;;;;;;5094025;28;20952;-53
2022/05/01 00:12:44;;;;;;;2.43;1.70;;;9.10;99.90;;;;;;5093965;28;20439;-52
2022/05/01 00:15:12;;;;;;;4.27;2.00;;;9.10;99.90;;;;;;5093819;28;20555;-53
2022/05/01 00:17:39;;;;;;;2.27;1.60;;;8.90;99.90;;;;;;5093450;28;20479;-53
2022/05/01 00:20:07;;;;;;;1.67;1.40;;;8.80;99.90;;;;;;5093821;28;20964;-53
2022/05/01 00:22:35;;;;;;;1.77;1.33;;;8.80;99.90;;;;;;5093486;28;20920;-53
2022/05/01 00:25:02;;;;;;;1.87;1.67;;;8.70;99.90;;;;;;5093494;28;20498;-53
2022/05/01 00:27:31;;;;;;;3.60;1.87;;;8.60;99.90;;;;;;5093463;28;20867;-53
2022/05/01 00:29:58;;;;;;;2.00;1.80;;;8.60;99.90;;;;;;5093117;28;20465;-53
2022/05/01 00:32:25;;;;;;;1.93;1.70;;;8.50;99.90;;;;;;5092826;28;20527;-52
2022/05/01 00:37:38;;;;;;;2.60;1.40;;;8.50;99.90;;;;;;5093259;28;20419;-53
2022/05/01 00:40:06;;;;;;;2.10;1.87;;;8.50;99.90;;;;;;5093189;28;20471;-52
2022/05/01 00:42:33;;;;;;;2.13;1.80;;;8.60;99.90;;;;;;5092703;28;21179;-53
2022/05/01 00:45:00;;;;;;;2.70;2.17;;;8.70;99.90;;;;;;5093182;28;20469;-52
2022/05/01 00:47:27;;;;;;;2.60;1.97;;;8.70;99.90;;;;;;5092863;28;20535;-53
2022/05/01 00:49:54;;;;;;;3.37;1.93;;;8.80;99.90;;;;;;5093047;28;20517;-52
2022/05/01 00:52:23;;;;;;;2.67;1.70;;;8.70;99.90;;;;;;5092661;28;20956;-53
2022/05/01 00:54:51;;;;;;;3.87;2.00;;;8.70;99.90;;;;;;5092966;28;20474;-55
2022/05/01 00:57:19;;;;;;;3.10;2.03;;;8.70;99.90;;;;;;5092635;28;20542;-53
2022/05/01 00:59:47;;;;;;;1.97;1.83;;;8.80;99.90;;;;;;5092881;28;20905;-53
2022/05/01 01:02:14;;;;;;;2.13;1.87;;;8.60;99.90;;;;;;5092745;28;20504;-52
2022/05/01 01:04:41;;;;;;;2.40;2.00;;;8.50;99.90;;;;;;5092567;28;20932;-52
2022/05/01 01:07:08;;;;;;;2.80;2.23;;;8.60;99.90;;;;;;5092556;28;20840;-52
2022/05/01 01:09:35;;;;;;;4.20;2.27;;;8.60;99.90;;;;;;5092876;28;20494;-53
2022/05/01 01:14:49;;;;;;;3.03;2.23;;;8.80;99.90;;;;;;5092414;28;20790;-55
2022/05/01 01:17:16;;;;;;;2.53;2.10;;;8.90;99.90;;;;;;5091795;28;20471;-52
2022/05/01 01:19:43;;;;;;;2.10;1.53;;;8.90;99.90;;;;;;5092113;28;20505;-52
2022/05/01 01:22:11;;;;;;;2.43;2.20;;;8.80;99.90;;;;;;5092340;28;20467;-52
2022/05/01 01:24:43;;;;;;;2.40;1.87;;;8.70;99.90;;;;;;5092294;28;20479;-52
2022/05/01 01:27:11;;;;;;;2.10;1.83;;;8.70;99.90;;;;;;5092353;28;20443;-53
2022/05/01 01:32:25;;;;;;;3.70;1.80;;;8.70;99.90;;;;;;5091972;28;20402;-52
2022/05/01 01:34:53;;;;;;;4.77;2.00;;;8.70;99.90;;;;;;5091964;28;21017;-53
2022/05/01 01:37:24;;;;;;;1.97;1.77;;;8.80;99.90;;;;;;5091979;28;20446;-52
2022/05/01 01:39:52;;;;;;;2.57;1.77;;;8.80;99.90;;;;;;5092281;28;20463;-52
2022/05/01 01:42:20;;;;;;;2.30;1.83;;;8.80;99.90;;;;;;5091725;28;20444;-53
2022/05/01 01:44:48;;;;;;;2.80;1.80;;;8.80;99.90;;;;;;5092056;28;20531;-53
2022/05/01 01:47:15;;;;;;;2.00;1.80;;;8.70;99.90;;;;;;5092239;28;20468;-52
2022/05/01 01:49:42;;;;;;;3.97;2.30;;;8.70;99.90;;;;;;5091705;28;20459;-53
2022/05/01 01:52:09;;;;;;;2.20;2.00;;;8.70;99.90;;;;;;5091557;28;20531;-52
2022/05/01 01:54:37;;;;;;;2.33;2.13;;;8.80;99.90;;;;;;5091940;28;20500;-53
2022/05/01 01:57:06;;;;;;;2.90;1.60;;;8.80;99.90;;;;;;5091269;28;20474;-52
2022/05/01 01:59:33;;;;;;;4.73;2.20;;;8.80;99.90;;;;;;5091855;28;20827;-52
2022/05/01 02:02:01;;;;;;;1.60;1.50;;;8.80;99.90;;;;;;5091342;28;20931;-52
2022/05/01 02:04:28;;;;;;;1.80;1.70;;;8.80;99.90;;;;;;5091473;28;20530;-52
2022/05/01 02:06:55;;;;;;;2.73;2.00;;;8.80;99.90;;;;;;5091546;28;20443;-52
2022/05/01 02:09:22;;;;;;;2.40;1.93;;;8.80;99.90;;;;;;5091358;28;20488;-52
2022/05/01 02:11:52;;;;;;;3.60;1.93;;;8.90;99.90;;;;;;5091944;28;20447;-52
2022/05/01 02:14:19;;;;;;;1.70;1.53;;;8.90;99.90;;;;;;5091487;28;20554;-53
2022/05/01 02:16:46;;;;;;;2.80;1.70;;;8.90;99.90;;;;;;5091315;28;20573;-52
2022/05/01 02:19:13;;;;;;;2.37;1.93;;;8.90;99.90;;;;;;5091269;28;20450;-52
2022/05/01 02:21:40;;;;;;;2.50;2.00;;;8.90;99.90;;;;;;5091412;28;20512;-52
2022/05/01 02:24:08;;;;;;;2.53;1.97;;;8.90;99.90;;;;;;5091121;28;20466;-52
2022/05/01 02:26:36;;;;;;;3.37;1.30;;;8.80;99.90;;;;;;5091383;28;20478;-53
2022/05/01 02:29:09;;;;;;;1.70;1.60;;;8.80;99.90;;;;;;5091525;28;20446;-52
2022/05/01 02:31:38;;;;;;;1.97;1.77;;;8.80;99.90;;;;;;5091452;28;20532;-52
2022/05/01 02:34:05;;;;;;;2.13;1.73;;;8.80;99.90;;;;;;5091039;28;20442;-52
2022/05/01 02:36:32;;;;;;;3.33;1.70;;;8.80;99.90;;;;;;5091179;28;20905;-52
2022/05/01 02:38:59;;;;;;;2.03;1.73;;;8.70;99.90;;;;;;5091014;28;20462;-52
2022/05/01 02:41:27;;;;;;;2.33;2.10;;;8.80;99.90;;;;;;5091153;28;20541;-54
2022/05/01 02:43:56;;;;;;;2.00;1.73;;;8.80;99.90;;;;;;5090980;28;20470;-52
2022/05/01 02:46:26;;;;;;;2.10;1.80;;;8.90;99.90;;;;;;5091244;28;20440;-52
2022/05/01 02:48:52;;;;;;;2.10;1.77;;;8.80;99.90;;;;;;5091213;28;20496;-52
2022/05/01 02:51:19;;;;;;;2.03;1.83;;;8.80;99.90;;;;;;5091383;28;20525;-53
2022/05/01 02:53:46;;;;;;;2.17;1.70;;;8.60;99.90;;;;;;5090901;28;20482;-52
2022/05/01 02:56:13;;;;;;;4.07;2.00;;;8.60;99.90;;;;;;5091149;28;20562;-52
2022/05/01 02:58:40;;;;;;;2.70;1.80;;;8.50;99.90;;;;;;5090953;28;20465;-52
2022/05/01 03:01:07;;;;;;;2.40;2.20;;;8.50;99.90;;;;;;5090456;28;20463;-52
2022/05/01 03:03:36;;;;;;;1.83;1.30;;;8.50;99.90;;;;;;5091137;28;20435;-52
2022/05/01 03:06:03;;;;;;;1.83;1.57;;;8.50;99.90;;;;;;5091131;28;20439;-52
2022/05/01 03:08:30;;;;;;;1.67;1.50;;;8.40;99.90;;;;;;5091073;28;20443;-53
2022/05/01 03:10:57;;;;;;;2.60;1.53;;;8.30;99.90;;;;;;5090714;28;20455;-52
2022/05/01 03:13:24;;;;;;;2.00;1.43;;;8.20;99.90;;;;;;5090661;28;20452;-52
2022/05/01 03:15:51;;;;;;;2.10;1.90;;;8.10;99.90;;;;;;5091027;28;20575;-53
2022/05/01 03:23:50;;;;;;;3.17;1.43;;;8.30;99.90;;;;;;5090716;28;20493;-52
2022/05/01 03:26:18;;;;;;;2.40;1.67;;;8.30;99.90;;;;;;5091015;28;20440;-52
2022/05/01 03:28:45;;;;;;;2.60;1.53;;;8.30;99.90;;;;;;5090986;28;20493;-52
2022/05/01 03:31:13;;;;;;;1.97;1.77;;;8.30;99.90;;;;;;5090718;28;20463;-53
2022/05/01 03:33:41;;;;;;;2.20;1.80;;;8.30;99.90;;;;;;5090584;28;20435;-52
2022/05/01 03:36:11;;;;;;;2.03;1.37;;;8.20;99.90;;;;;;5090542;28;20568;-52
2022/05/01 03:38:39;;;;;;;2.63;1.80;;;8.20;99.90;;;;;;5090694;28;20928;-52
2022/05/01 03:41:07;;;;;;;2.80;1.87;;;8.10;99.90;;;;;;5091957;28;20495;-52
2022/05/01 03:43:35;;;;;;;1.80;1.40;;;8.10;99.90;;;;;;5094040;28;20999;-52
2022/05/01 03:46:04;;;;;;;6.20;1.93;;;8.00;99.90;;;;;;5094415;28;20860;-52
2022/05/01 03:48:32;;;;;;;2.13;1.47;;;7.90;99.90;;;;;;5094325;28;20461;-53
2022/05/01 03:50:59;;;;;;;1.70;1.30;;;7.90;99.90;;;;;;5093895;28;20476;-52
2022/05/01 03:53:29;;;;;;;2.10;1.47;;;8.00;99.90;;;;;;5094062;28;20516;-51
2022/05/01 03:55:56;;;;;;;3.60;1.40;;;8.00;99.90;;;;;;5094011;28;20898;-52
2022/05/01 03:58:23;;;;;;;1.90;1.70;;;8.00;99.90;;;;;;5094024;28;21042;-52
2022/05/01 04:00:51;;;;;;;2.00;1.53;;;8.00;99.90;;;;;;5093630;28;20717;-52
2022/05/01 04:03:18;;;;;;;5.30;3.17;;;7.80;99.90;;;;;;5093656;28;20486;-52
2022/05/01 04:05:45;;;;;;;3.47;2.30;;;7.80;99.90;;;;;;5094082;28;20467;-52
2022/05/01 04:08:12;;;;;;;1.40;1.10;;;7.90;99.90;;;;;;5093991;28;20482;-52
2022/05/01 04:10:42;;;;;;;2.23;1.43;;;8.00;99.90;;;;;;5093772;28;20459;-52
2022/05/01 04:13:09;;;;;;;1.90;1.77;;;8.00;99.90;;;;;;5093620;28;20440;-52
2022/05/01 04:15:37;;;;;;;2.20;2.00;;;8.00;99.90;;;;;;5093588;28;20478;-53
2022/05/01 04:18:04;;;;;;;1.90;1.57;;;8.00;99.90;;;;;;5093734;28;20443;-51
2022/05/01 04:20:32;;;;;;;1.63;1.40;;;7.80;99.90;;;;;;5093513;28;20463;-52
2022/05/01 04:23:01;;;;;;;1.30;1.20;;;7.80;99.90;;;;;;5093452;28;20557;-52
2022/05/01 04:25:30;;;;;;;1.60;1.27;;;7.80;99.90;;;;;;5093414;28;20443;-51
2022/05/01 04:28:00;;;;;;;2.30;1.80;;;7.80;99.90;;;;;;5093307;28;20439;-52
2022/05/01 04:30:29;;;;;;;4.10;1.90;;;7.80;99.90;;;;;;5093256;28;20475;-53
2022/05/01 04:32:58;;;;;;;2.37;1.40;;;7.90;99.90;;;;;;5093232;28;20443;-52
2022/05/01 04:35:28;;;;;;;2.77;1.77;;;7.80;99.90;;;;;;5093290;28;20881;-51
2022/05/01 04:37:59;;;;;;;2.13;1.73;;;7.90;99.90;;;;;;5093442;28;20472;-52
2022/05/01 04:40:27;;;;;;;2.10;1.73;;;8.10;99.90;;;;;;5093191;28;20463;-51
2022/05/01 04:42:54;;;;;;;1.90;1.70;;;8.20;99.90;;;;;;5093285;28;20454;-52
2022/05/01 04:45:22;;;;;;;1.80;1.60;;;8.30;99.90;;;;;;5093351;28;20869;-52
2022/05/01 04:47:49;;;;;;;1.60;1.40;;;8.40;99.90;;;;;;5093236;28;20475;-52
2022/05/01 04:50:17;;;;;;;2.73;1.77;;;8.50;99.90;;;;;;5092896;28;20459;-51
2022/05/01 04:52:44;;;;;;;2.83;2.23;;;8.50;99.90;;;;;;5091821;28;20440;-52
2022/05/01 04:55:11;;;;;;;2.10;1.63;;;8.40;99.90;;;;;;5092793;28;20974;-52
2022/05/01 04:57:40;;;;;;;2.13;1.93;;;8.50;99.90;;;;;;5092938;28;20475;-52
2022/05/01 05:00:08;;;;;;;1.93;1.60;;;8.60;99.90;;;;;;5092795;28;20472;-52
2022/05/01 05:02:41;;;;;;;2.40;1.70;;;8.70;99.90;;;;;;5092208;28;20931;-52
2022/05/01 05:05:10;;;;;;;2.30;1.97;;;8.90;99.90;;;;;;5092482;28;20448;-52
2022/05/01 05:07:38;;;;;;;3.07;2.77;;;8.90;99.90;;;;;;5092555;28;20545;-52
2022/05/01 05:10:05;;;;;;;3.30;3.00;;;8.80;99.90;;;;;;5092755;28;20463;-52
2022/05/01 05:12:33;;;;;;;2.93;2.63;;;8.70;99.90;;;;;;5092081;28;20436;-52
2022/05/01 05:15:01;;;;;;;2.10;1.90;;;8.80;99.90;;;;;;5092441;28;20497;-52
2022/05/01 05:17:31;;;;;;;2.00;1.70;;;8.80;99.90;;;;;;5092434;28;20479;-52
2022/05/01 05:20:00;;;;;;;2.33;2.00;;;8.90;99.90;;;;;;5092638;28;20470;-52
2022/05/01 05:22:27;;;;;;;2.87;2.00;;;8.90;99.90;;;;;;5092303;28;20568;-52
2022/05/01 05:24:55;;;;;;;3.40;1.90;;;9.00;99.90;;;;;;5092512;28;20504;-52
2022/05/01 05:27:25;;;;;;;2.27;2.03;;;9.10;99.90;;;;;;5092258;28;20438;-51
2022/05/01 05:29:53;;;;;;;3.27;2.60;;;9.20;99.90;;;;;;5092316;28;20547;-52
2022/05/01 05:32:20;;;;;;;3.60;3.07;;;9.30;99.90;;;;;;5091901;28;21007;-52
2022/05/01 05:34:47;;;;;;;3.33;3.03;;;9.40;99.90;;;;;;5092550;28;20865;-52
2022/05/01 05:37:15;;;;;;;3.83;2.83;;;9.50;99.90;;;;;;5091986;28;20562;-53
2022/05/01 05:39:42;;;;;;;3.40;3.10;;;9.30;99.90;;;;;;5091926;28;20485;-52
2022/05/01 05:42:10;;;;;;;2.80;2.47;;;8.90;99.90;;;;;;5091839;28;20475;-52
2022/05/01 05:44:37;;;;;;;2.70;2.50;;;8.70;99.90;;;;;;5091922;28;20526;-52
2022/05/01 05:47:05;;;;;;;2.90;2.60;;;8.80;99.90;;;;;;5092446;28;20435;-53
2022/05/01 05:49:32;;;;;;;3.27;2.70;;;8.70;99.90;;;;;;5091759;28;20513;-52
2022/05/01 05:52:00;;;;;;;2.37;2.17;;;8.60;99.90;;;;;;5092159;28;20448;-52
2022/05/01 05:54:28;;;;;;;2.40;2.10;;;8.60;99.90;;;;;;5091442;28;20454;-53
2022/05/01 05:56:55;;;;;;;4.87;3.07;;;8.70;99.90;;;;;;5091603;28;20506;-53
2022/05/01 05:59:22;;;;;;;3.23;2.20;;;8.90;99.90;;;;;;5091423;28;20443;-52
2022/05/01 06:01:49;;;;;;;4.00;2.67;;;9.00;99.90;;;;;;5133051;22;20586;-51
2022/05/01 06:04:16;;;;;;;3.03;2.73;;;8.90;99.90;;;;;;5070686;28;20436;-50
2022/05/01 06:06:43;;;;;;;3.07;2.60;;;9.00;99.90;;;;;;5071365;28;20882;-51
2022/05/01 06:09:10;;;;;;;4.43;3.70;;;9.10;99.90;;;;;;5071235;28;20498;-51
2022/05/01 06:11:39;;;;;;;3.23;2.80;;;9.20;99.90;;;;;;5071091;28;20460;-50
2022/05/01 06:14:06;;;;;;;3.50;3.20;;;9.30;99.90;;;;;;5071171;28;20494;-50
2022/05/01 06:16:33;;;;;;;3.13;2.83;;;9.40;99.90;;;;;;5071145;28;20476;-50
2022/05/01 06:19:00;;;;;;;4.20;3.00;;;9.60;99.90;;;;;;5071088;28;20817;-52
2022/05/01 06:21:28;;;;;;;3.57;3.27;;;9.70;99.90;;;;;;5071264;28;21058;-51
2022/05/01 06:23:55;;;;;;;3.30;3.00;;;9.50;99.90;;;;;;5071010;28;20472;-52
2022/05/01 06:26:22;;;;;;;4.10;2.70;;;9.60;99.90;;;;;;5071110;28;21004;-50
2022/05/01 06:28:50;;;;;;;2.50;2.17;;;9.60;99.90;;;;;;5071703;28;20476;-50
2022/05/01 06:31:17;;;;;;;2.90;2.27;;;9.60;99.90;;;;;;5071047;28;21019;-51
2022/05/01 06:33:46;;;;;;;2.80;2.60;;;9.50;99.90;;;;;;5071191;28;20508;-50
2022/05/01 06:36:15;;;;;;;1.97;1.87;;;9.50;99.90;;;;;;5071145;28;20436;-51
2022/05/01 06:38:43;;;;;;;4.40;3.00;;;9.60;99.90;;;;;;5071132;28;20436;-50
2022/05/01 06:41:10;;;;;;;2.30;2.10;;;9.60;99.90;;;;;;5070957;28;20870;-51
2022/05/01 06:43:37;;;;;;;2.80;2.40;;;9.60;99.90;;;;;;5070833;28;20944;-50
2022/05/01 06:46:06;;;;;;;3.63;1.97;;;9.60;99.90;;;;;;5070914;28;20478;-52
2022/05/01 06:48:33;;;;;;;10.90;9.90;;;9.60;99.90;;;;;;5071209;28;20436;-51
2022/05/01 06:51:00;;;;;;;3.07;2.87;;;9.70;99.90;;;;;;5070772;28;20499;-50
2022/05/01 06:53:26;;;;;;;3.00;2.40;;;9.60;99.90;;;;;;5070461;28;20440;-52
2022/05/01 06:55:55;;;;;;;3.40;3.00;;;9.70;99.90;;;;;;5071070;28;20869;-50
2022/05/01 06:58:22;;;;;;;3.67;3.37;;;9.70;99.90;;;;;;5070955;28;20514;-50
2022/05/01 07:00:52;;;;;;;2.00;1.90;;;9.70;99.90;;;;;;5070490;28;20530;-50
2022/05/01 07:03:20;;;;;;;1.93;1.73;;;9.80;99.90;;;;;;5070945;28;20454;-50
2022/05/01 07:05:47;;;;;;;2.60;1.77;;;9.80;99.90;;;;;;5070813;28;20920;-50
2022/05/01 07:08:14;;;;;;;2.57;2.37;;;9.90;99.90;;;;;;5070754;28;20436;-50
2022/05/01 07:10:41;;;;;;;1.80;1.70;;;10.00;99.90;;;;;;5070612;28;20467;-50
2022/05/01 07:13:09;;;;;;;2.37;2.17;;;10.00;99.90;;;;;;5070683;28;20443;-52
2022/05/01 07:15:36;;;;;;;3.17;2.50;;;10.00;99.90;;;;;;5071004;28;20944;-50
2022/05/01 07:18:04;;;;;;;7.90;4.80;;;9.90;99.90;;;;;;5074634;28;20478;-49
2022/05/01 07:20:34;;;;;;;3.10;2.57;;;10.00;99.90;;;;;;5074367;28;20512;-50
2022/05/01 07:23:01;;;;;;;2.47;2.27;;;10.20;99.90;;;;;;5074351;28;20448;-50
2022/05/01 07:25:28;;;;;;;2.40;2.20;;;10.30;99.90;;;;;;5074351;28;20436;-50
2022/05/01 07:27:55;;;;;;;2.83;2.30;;;10.40;99.90;;;;;;5074321;28;20436;-50
2022/05/01 07:30:22;;;;;;;2.50;2.00;;;10.40;99.90;;;;;;5074502;28;20468;-50
2022/05/01 07:32:49;;;;;;;2.60;2.20;;;10.60;99.90;;;;;;5074447;28;20475;-54
2022/05/01 07:35:16;;;;;;;2.03;1.80;;;10.60;99.90;;;;;;5074518;28;20468;-50
2022/05/01 07:37:44;;;;;;;2.03;1.83;;;10.60;99.90;;;;;;5073934;28;20522;-50
2022/05/01 07:40:12;;;;;;;3.37;1.47;;;10.60;99.90;;;;;;5074149;28;20468;-51
2022/05/01 07:42:39;;;;;;;3.13;2.43;;;10.70;99.90;;;;;;5073594;28;20483;-50
2022/05/01 07:45:08;;;;;;;4.97;3.10;;;10.70;99.90;;;;;;5074282;28;20526;-50
2022/05/01 07:47:36;;;;;;;3.07;2.67;;;10.80;99.90;;;;;;5074063;28;20444;-51
2022/05/01 07:50:03;;;;;;;3.53;3.23;;;10.80;99.90;;;;;;5074011;28;20439;-50
2022/05/01 07:52:30;;;;;;;3.60;3.30;;;10.90;99.90;;;;;;5073762;28;20539;-50
2022/05/01 07:54:59;;;;;;;3.97;3.03;;;10.80;99.90;;;;;;5073743;28;20483;-48
2022/05/01 07:57:26;;;;;;;3.10;2.80;;;10.90;99.90;;;;;;5073475;28;20502;-50
2022/05/01 07:59:54;;;;;;;3.10;2.70;;;10.80;99.90;;;;;;5073620;28;20472;-50
2022/05/01 08:02:21;;;;;;;3.90;3.47;;;10.90;99.90;;;;;;5072573;28;20941;-50
2022/05/01 08:04:47;;;;;;;2.93;2.63;;;11.00;99.90;;;;;;5073900;28;20805;-50
2022/05/01 08:07:15;;;;;;;2.83;2.43;;;10.80;99.90;;;;;;5073443;28;20431;-50
2022/05/01 08:09:42;;;;;;;2.73;2.50;;;10.90;99.90;;;;;;5073901;28;20793;-50
2022/05/01 08:12:11;;;;;;;2.23;2.03;;;11.10;99.90;;;;;;5073449;28;20495;-50
2022/05/01 08:14:41;;;;;;;2.53;2.33;;;11.10;99.90;;;;;;5073422;28;20446;-51
2022/05/01 08:17:09;;;;;;;2.63;2.30;;;11.30;99.90;;;;;;5072645;28;21060;-50
2022/05/01 08:22:17;;;;;;;3.07;1.80;;;11.30;99.90;;;;;;5049586;28;20452;-50
2022/05/01 08:24:43;;;;;;;2.27;1.97;;;11.30;99.90;;;;;;5073580;28;20468;-50
2022/05/01 08:27:12;;;;;;;2.60;1.90;;;11.60;99.90;;;;;;5073188;28;20536;-51
2022/05/01 08:29:39;;;;;;;2.03;1.80;;;11.70;99.90;;;;;;5073351;28;20449;-50
2022/05/01 08:32:07;;;;;;;2.57;1.97;;;11.80;99.90;;;;;;5072965;28;20972;-51
2022/05/01 08:34:34;;;;;;;2.77;2.10;;;11.90;99.90;;;;;;5073302;28;20468;-50
2022/05/01 08:37:02;;;;;;;3.23;2.00;;;11.80;99.90;;;;;;5073258;28;20447;-50
2022/05/01 08:39:29;;;;;;;2.20;2.00;;;12.00;99.90;;;;;;5073321;28;20449;-51
2022/05/01 08:41:56;;;;;;;2.33;1.43;;;12.10;99.90;;;;;;5073212;28;20460;-50
2022/05/01 08:44:32;;;;;;;2.37;1.90;;;12.20;99.90;;;;;;5072949;28;20476;-52
2022/05/01 08:47:20;;;;;;;2.87;1.80;;;12.30;99.90;;;;;;5073048;28;20424;-50
2022/05/01 08:49:49;;;;;;;2.37;1.63;;;12.40;99.90;;;;;;5072860;28;20513;-50
2022/05/01 08:52:18;;;;;;;2.43;1.70;;;12.30;99.90;;;;;;5072796;28;20493;-51
2022/05/01 08:54:47;;;;;;;1.50;1.13;;;12.40;99.90;;;;;;5072447;28;20444;-50
2022/05/01 08:57:15;;;;;;;1.60;1.50;;;12.30;99.90;;;;;;5072584;28;20476;-53
2022/05/01 08:59:46;;;;;;;1.90;1.50;;;12.30;99.90;;;;;;5072401;28;20448;-50
2022/05/01 09:02:13;;;;;;;1.87;1.30;;;12.50;99.90;;;;;;5071916;28;20452;-52
2022/05/01 09:04:41;;;;;;;2.20;1.30;;;12.70;99.90;;;;;;5072589;28;20441;-50
2022/05/01 09:07:08;;;;;;;2.50;2.30;;;12.80;99.90;;;;;;5073153;28;20539;-50
2022/05/01 09:09:35;;;;;;;2.10;1.80;;;12.80;99.90;;;;;;5072770;28;20472;-49
2022/05/01 09:14:49;;;;;;;1.77;1.50;;;12.60;99.90;;;;;;5072460;28;20419;-52
2022/05/01 09:17:19;;;;;;;2.20;1.77;;;12.80;99.90;;;;;;5072268;28;20488;-52
2022/05/01 09:19:48;;;;;;;2.07;1.87;;;12.50;99.90;;;;;;5071905;28;20452;-52
2022/05/01 09:22:16;;;;;;;1.50;1.33;;;12.30;99.90;;;;;;5072462;28;20535;-49
2022/05/01 09:24:43;;;;;;;2.07;1.73;;;12.50;99.90;;;;;;5072033;28;21025;-50
2022/05/01 09:27:25;;;;;;;2.30;1.87;;;12.50;99.90;;;;;;5071985;28;20441;-49
2022/05/01 09:30:08;;;;;;;2.23;1.50;;;12.70;99.90;;;;;;5071951;28;20448;-49
2022/05/01 09:32:39;;;;;;;1.93;1.73;;;12.90;99.90;;;;;;5071352;28;20924;-51
2022/05/01 09:35:08;;;;;;;2.27;1.60;;;13.10;99.90;;;;;;5072079;28;20502;-49
2022/05/01 09:37:35;;;;;;;1.70;1.43;;;13.30;99.90;;;;;;5071789;28;20551;-51
2022/05/01 09:40:01;;;;;;;2.43;1.67;;;13.30;99.90;;;;;;5071175;28;20531;-49
2022/05/01 09:42:35;;;;;;;2.77;2.57;;;13.30;99.90;;;;;;5071519;28;20882;-49
2022/05/01 09:45:09;;;;;;;1.93;1.73;;;13.50;99.90;;;;;;5071763;28;20948;-49
2022/05/01 09:47:37;;;;;;;1.93;1.50;;;13.40;99.90;;;;;;5071693;28;20782;-49
2022/05/01 09:50:05;;;;;;;3.33;1.80;;;13.70;99.90;;;;;;5071010;28;20910;-50
2022/05/01 09:52:57;;;;;;;2.53;1.73;;;13.60;99.90;;;;;;5071635;28;20448;-49
2022/05/01 09:55:24;;;;;;;1.70;1.50;;;13.70;99.90;;;;;;5071468;28;20470;-49
2022/05/01 09:58:03;;;;;;;1.60;1.50;;;13.50;99.90;;;;;;5071413;28;20579;-48
2022/05/01 10:00:42;;;;;;;1.70;1.50;;;13.50;99.90;;;;;;5071483;28;20471;-49
2022/05/01 10:03:24;;;;;;;1.50;1.40;;;13.20;99.90;;;;;;5071040;28;20472;-49
2022/05/01 10:05:52;;;;;;;1.80;1.70;;;12.90;99.90;;;;;;5071470;28;20494;-50
2022/05/01 10:08:20;;;;;;;2.20;1.53;;;12.80;99.90;;;;;;5071700;28;20480;-49
2022/05/01 10:10:49;;;;;;;2.53;1.70;;;12.90;99.90;;;;;;5071457;28;20464;-51
2022/05/01 10:13:17;;;;;;;1.70;1.60;;;13.00;99.90;;;;;;5071082;28;20453;-51
2022/05/01 10:15:46;;;;;;;2.67;1.80;;;13.00;99.90;;;;;;5071148;28;20828;-50
2022/05/01 10:18:14;;;;;;;2.30;1.80;;;13.00;99.90;;;;;;5071490;28;20480;-51
2022/05/01 10:20:43;;;;;;;2.47;2.07;;;13.00;99.90;;;;;;5070846;28;21015;-50
2022/05/01 10:23:11;;;;;;;3.50;1.90;;;13.00;99.90;;;;;;5071541;28;20436;-49
2022/05/01 10:25:41;;;;;;;1.97;1.20;;;13.00;99.90;;;;;;5071055;28;20807;-49
2022/05/01 10:28:22;;;;;;;2.60;1.60;;;13.10;99.90;;;;;;5071085;28;20951;-48
2022/05/01 10:34:02;;;;;;;1.33;0.97;;;13.30;99.90;;;;;;5071039;28;20435;-48
2022/05/01 10:36:47;;;;;;;1.63;1.07;;;13.50;99.90;;;;;;5071475;28;20444;-50
2022/05/01 10:39:15;;;;;;;1.77;1.00;;;13.90;99.90;;;;;;5071173;28;20533;-48
2022/05/01 10:41:43;;;;;;;2.17;0.83;;;13.90;99.90;;;;;;5071257;28;20464;-48
2022/05/01 10:44:28;;;;;;;1.77;1.50;;;14.20;99.90;;;;;;5070750;28;20440;-48
2022/05/01 10:47:04;;;;;;;1.30;0.83;;;14.00;99.90;;;;;;5071007;28;20831;-51
2022/05/01 10:49:37;;;;;;;1.23;1.00;;;14.30;99.90;;;;;;5071145;28;20515;-49
2022/05/01 10:52:18;;;;;;;1.20;1.10;;;14.60;99.90;;;;;;5074051;28;20474;-49
2022/05/01 10:54:54;;;;;;;1.03;0.73;;;14.30;99.90;;;;;;5075064;28;20455;-48
2022/05/01 10:57:22;;;;;;;1.20;0.90;;;14.40;99.90;;;;;;5075218;28;20955;-48
2022/05/01 10:59:51;;;;;;;1.70;1.10;;;14.40;99.90;;;;;;5075229;28;20486;-48
2022/05/01 11:02:22;;;;;;;1.33;0.60;;;14.60;99.90;;;;;;5074691;28;20440;-47
2022/05/01 11:04:50;;;;;;;1.67;0.90;;;14.60;99.90;;;;;;5074974;28;20501;-48
2022/05/01 11:07:18;;;;;;;1.30;1.20;;;14.80;99.90;;;;;;5075287;28;20463;-48
2022/05/01 11:09:46;;;;;;;1.30;1.07;;;14.70;99.90;;;;;;5075059;28;20432;-48
2022/05/01 11:12:14;;;;;;;1.60;1.10;;;15.00;99.90;;;;;;5074640;28;20442;-48
2022/05/01 11:14:50;;;;;;;2.00;1.60;;;14.80;99.90;;;;;;5074751;28;20515;-48
2022/05/01 11:17:29;;;;;;;1.60;1.50;;;15.00;99.90;;;;;;5074623;28;20436;-48
2022/05/01 11:20:06;;;;;;;2.10;1.90;;;15.00;99.90;;;;;;5074525;28;20880;-48
2022/05/01 11:22:33;;;;;;;2.03;1.83;;;14.80;99.90;;;;;;5074471;28;20440;-47
2022/05/01 11:25:00;;;;;;;3.67;2.47;;;14.60;99.90;;;;;;5074394;28;20489;-48
2022/05/01 11:27:27;;;;;;;2.20;2.00;;;14.80;99.90;;;;;;5074328;28;20472;-48
2022/05/01 11:30:33;;;;;;;2.10;1.90;;;14.30;99.90;;;;;;5074317;28;20440;-48
2022/05/01 11:33:03;;;;;;;1.93;1.77;;;14.50;99.90;;;;;;5065369;28;20454;-48
2022/05/01 11:35:55;;;;;;;2.50;1.87;;;14.60;99.90;;;;;;5074253;28;20999;-51
2022/05/01 11:38:23;;;;;;;12.37;7.93;;;14.90;99.90;;;;;;5065543;28;20507;-48
2022/05/01 11:40:55;;;;;;;2.10;1.90;;;14.90;99.90;;;;;;5073484;28;20448;-50
2022/05/01 11:43:23;;;;;;;3.97;1.77;;;14.80;99.90;;;;;;5074049;28;20482;-47
2022/05/01 11:45:50;;;;;;;8.73;2.37;;;14.80;99.90;;;;;;5074321;28;20436;-50
2022/05/01 11:48:20;;;;;;;2.00;1.80;;;14.50;99.90;;;;;;5074096;28;20436;-48
2022/05/01 11:50:50;;;;;;;1.07;0.87;;;14.60;99.90;;;;;;5073870;28;20513;-47
2022/05/01 11:53:23;;;;;;;1.80;1.60;;;14.30;99.90;;;;;;5073794;28;21005;-49
2022/05/01 12:04:28;;;;;;;1.57;1.33;;;14.20;99.90;;;;;;5093300;28;20434;-47
2022/05/01 12:07:03;;;;;;;1.10;0.90;;;14.30;99.90;;;;;;5094322;28;20443;-47
2022/05/01 12:09:33;;;;;;;2.13;1.30;;;14.30;99.90;;;;;;5094013;28;20459;-50
2022/05/01 12:12:00;;;;;;;1.40;0.87;;;14.20;99.90;;;;;;5094073;28;20495;-47
2022/05/01 12:14:27;;;;;;;2.30;1.00;;;13.80;99.90;;;;;;5093450;28;20943;-48
2022/05/01 12:16:54;;;;;;;2.73;2.00;;;13.90;99.90;;;;;;5093884;28;20839;-47
2022/05/01 12:19:21;;;;;;;1.30;0.93;;;13.80;99.90;;;;;;5093750;28;20511;-51
2022/05/01 12:21:59;;;;;;;1.43;0.70;;;14.10;99.90;;;;;;5093441;28;20491;-47
2022/05/01 12:24:27;;;;;;;1.20;1.07;;;14.10;99.90;;;;;;5093465;28;20974;-47
2022/05/01 12:26:54;;;;;;;1.00;0.90;;;14.10;99.90;;;;;;5093607;28;20873;-49
2022/05/01 12:29:23;;;;;;;1.70;1.20;;;14.10;99.90;;;;;;5093506;28;20439;-46
2022/05/01 12:32:11;;;;;;;1.20;0.80;;;14.20;99.90;;;;;;5093445;28;20519;-49
2022/05/01 12:34:40;;;;;;;1.50;1.10;;;14.00;99.90;;;;;;5088457;28;20504;-47
2022/05/01 12:37:13;;;;;;;1.87;1.00;;;13.80;99.90;;;;;;5093726;28;20444;-48
2022/05/01 12:39:41;;;;;;;2.60;1.27;;;13.70;99.90;;;;;;5093332;28;20479;-49
2022/05/01 12:45:12;;;;;;;1.30;1.13;;;13.50;99.90;;;;;;5093398;28;20419;-49
2022/05/01 12:47:41;;;;;;;1.63;1.17;;;13.40;99.90;;;;;;5093153;28;20443;-48
2022/05/01 12:50:10;;;;;;;3.00;1.17;;;13.30;99.90;;;;;;5093059;28;20497;-48
2022/05/01 12:52:40;;;;;;;1.60;1.50;;;13.30;99.90;;;;;;5092886;28;20995;-48
2022/05/01 12:55:09;;;;;;;1.77;1.10;;;13.00;99.90;;;;;;5093329;28;20534;-47
2022/05/01 12:57:40;;;;;;;1.90;1.67;;;13.00;99.90;;;;;;5092470;28;20451;-46
2022/05/01 13:00:08;;;;;;;2.33;2.13;;;12.90;99.90;;;;;;5092170;28;20509;-47
2022/05/01 13:02:35;;;;;;;2.50;1.90;;;13.00;99.90;;;;;;5092085;28;20967;-47
2022/05/01 13:05:03;;;;;;;2.53;2.13;;;12.80;99.90;;;;;;5092735;28;20526;-49
2022/05/01 13:07:31;;;;;;;2.63;2.33;;;12.60;99.90;;;;;;5092695;28;20925;-48
2022/05/01 13:09:59;;;;;;;2.27;1.70;;;12.60;99.90;;;;;;5093068;28;20474;-50
2022/05/01 13:12:31;;;;;;;2.07;1.87;;;12.60;99.90;;;;;;5092403;28;20463;-50
2022/05/01 13:15:02;;;;;;;2.30;2.10;;;12.70;99.90;;;;;;5091755;28;20444;-46
2022/05/01 13:17:29;;;;;;;2.50;2.30;;;12.50;99.90;;;;;;5092318;28;20467;-47
2022/05/01 13:19:57;;;;;;;2.53;1.83;;;12.60;99.90;;;;;;5092599;28;20479;-47
2022/05/01 13:22:25;;;;;;;2.57;2.03;;;12.50;99.90;;;;;;5092249;28;20532;-46
2022/05/01 13:24:53;;;;;;;1.83;1.70;;;12.60;99.90;;;;;;5092344;28;20497;-47
2022/05/01 13:27:23;;;;;;;2.27;1.70;;;12.40;99.90;;;;;;5092320;28;20443;-49
2022/05/01 13:29:50;;;;;;;1.77;1.67;;;12.50;99.90;;;;;;5091651;28;20856;-48
2022/05/01 13:32:18;;;;;;;2.40;1.70;;;12.30;99.90;;;;;;5091860;28;20459;-46
2022/05/01 13:34:46;;;;;;;1.87;1.77;;;12.40;99.90;;;;;;5092239;28;20497;-47